D/T METAR WX W/DIR W/SPE G/SPE TEMP DEWP
25/02/20 15:20 EGJB 251520Z 29020G31KT 9999 FEW010CB 07/04 Q1003 RESHRA WNW (290°) 23.0mph 35.7mph 7°C 4°C
25/02/20 14:50 EGJB 251450Z 28021G31KT 9999 VCSH FEW010CB 07/04 Q1003 RESHRA VCSH W (280°) 24.2mph 35.7mph 7°C 4°C
25/02/20 14:20 EGJB 251420Z 27028G43KT 8000 SHRAGS SCT015CB 07/03 Q1004 SHRA SHGS W (270°) 32.2mph 49.5mph 7°C 3°C
25/02/20 13:50 EGJB 251350Z 25024G34KT 9999 VCSH FEW015CB 08/02 Q1004 VCSH WSW (250°) 27.6mph 39.1mph 8°C 2°C
25/02/20 13:20 EGJB 251320Z 26021KT 9999 VCSH FEW015CB 09/03 Q1004 VCSH W (260°) 24.2mph 9°C 3°C
25/02/20 12:50 EGJB 251250Z 27022KT 9999 FEW015CB 10/03 Q1005 W (270°) 25.3mph 10°C 3°C
25/02/20 12:20 EGJB 251220Z 27022KT 9999 FEW015CB 09/02 Q1005 W (270°) 25.3mph 9°C 2°C
25/02/20 11:50 EGJB 251150Z 27020KT 9999 FEW015CB 09/03 Q1006 W (270°) 23.0mph 9°C 3°C
25/02/20 11:20 EGJB 251120Z 27022KT 9999 -SHRA FEW015CB SCT018 08/04 Q1006 -SHRA W (270°) 25.3mph 8°C 4°C
25/02/20 10:50 EGJB 251050Z 27022KT 9999 FEW018 08/04 Q1006 W (270°) 25.3mph 8°C 4°C
25/02/20 10:20 EGJB 251020Z 27023KT 9999 VCSH FEW012CB 08/04 Q1006 VCSH W (270°) 26.5mph 8°C 4°C
25/02/20 09:50 EGJB 250950Z 26018KT 9999 6000NE -SHRA FEW012CB 08/06 Q1006 -SHRA W (260°) 20.7mph 8°C 6°C
25/02/20 09:20 EGJB 250920Z 27020KT 9999 VCSH FEW015CB 07/05 Q1006 VCSH W (270°) 23.0mph 7°C 5°C
25/02/20 08:50 EGJB 250850Z 26019KT 9999 VCSH SCT015CB SCT030 07/04 Q1007 VCSH W (260°) 21.9mph 7°C 4°C
25/02/20 08:20 EGJB 250820Z 26015KT 9999 -SHRA FEW015CB 08/05 Q1007 -SHRA W (260°) 17.3mph 8°C 5°C
25/02/20 07:50 EGJB 250750Z 26016KT 9999 FEW015CB 07/04 Q1007 W (260°) 18.4mph 7°C 4°C
25/02/20 07:20 EGJB 250720Z 27017KT 9999 VCSH FEW015CB SCT032 07/05 Q1007 VCSH W (270°) 19.6mph 7°C 5°C
25/02/20 06:50 EGJB 250650Z 27014KT 9999 VCSH FEW015CB SCT032 07/05 Q1008 VCSH W (270°) 16.1mph 7°C 5°C
25/02/20 06:20 EGJB 250620Z 27017KT 9999 VCSH FEW015CB SCT018 07/05 Q1008 VCSH W (270°) 19.6mph 7°C 5°C
25/02/20 05:50 EGJB 250550Z 27014KT 9999 VCSH FEW015CB SCT018 BKN048 07/06 Q1008 RESHRA VCSH W (270°) 16.1mph 7°C 6°C
25/02/20 05:20 EGJB 250520Z 27016KT 9999 -SHRA SCT016 BKN034 08/05 Q1008 -SHRA W (270°) 18.4mph 8°C 5°C
25/02/20 04:50 EGJB 250450Z 26016KT 9999 VCSH FEW014 SCT042 08/04 Q1008 VCSH W (260°) 18.4mph 8°C 4°C
25/02/20 04:20 EGJB 250420Z 27013KT 9999 -SHRA FEW014 BKN042 08/03 Q1008 -SHRA W (270°) 15.0mph 8°C 3°C
25/02/20 03:50 EGJB 250350Z 28013KT 9999 FEW014 07/04 Q1009 W (280°) 15.0mph 7°C 4°C
25/02/20 02:50 EGJB 250250Z 27018KT 9999 VCSH FEW012 SCT028 BKN042 08/03 Q1009 VCSH W (270°) 20.7mph 8°C 3°C
25/02/20 01:50 EGJB 250150Z 28015KT 9999 -SHRA FEW012 BKN028 08/05 Q1010 -SHRA W (280°) 17.3mph 8°C 5°C
25/02/20 00:50 EGJB 250050Z 28015KT 9999 VCSH FEW015 BKN036 08/05 Q1010 VCSH W (280°) 17.3mph 8°C 5°C
24/02/20 23:50 EGJB 242350Z 27013KT 9999 VCSH FEW015 BKN036 08/06 Q1010 VCSH W (270°) 15.0mph 8°C 6°C
24/02/20 22:50 EGJB 242250Z 27014KT 9999 SCT034 08/06 Q1011 W (270°) 16.1mph 8°C 6°C
24/02/20 21:50 EGJB 242150Z 28014KT 9999 FEW008 BKN030 09/07 Q1011 W (280°) 16.1mph 9°C 7°C
24/02/20 21:20 EGJB 242120Z 28015KT 9999 FEW004 SCT018 BKN030 09/07 Q1011 W (280°) 17.3mph 9°C 7°C
24/02/20 20:50 EGJB 242050Z 28015KT 9999 FEW004 SCT018 BKN035 09/08 Q1011 W (280°) 17.3mph 9°C 8°C
24/02/20 20:20 EGJB 242020Z 27016KT 9999 VCSH FEW004 SCT015 BKN035 09/09 Q1011 RERA VCSH W (270°) 18.4mph 9°C 9°C
24/02/20 19:50 EGJB 241950Z 27015KT 9999 4000SW -RA FEW003 SCT004 BKN008 10/10 Q1012 -RA W (270°) 17.3mph 10°C 10°C
24/02/20 19:20 EGJB 241920Z 26017KT 9999 -RA FEW003 SCT006 BKN015 10/10 Q1011 -RA W (260°) 19.6mph 10°C 10°C
24/02/20 18:50 EGJB 241850Z 25018KT 8000 FEW001 BKN003 10/10 Q1011 WSW (250°) 20.7mph 10°C 10°C
24/02/20 18:20 EGJB 241820Z 25019KT 2500 -RADZ BR FEW001 BKN002 10/10 Q1011 -RA -DZ BR WSW (250°) 21.9mph 10°C 10°C
24/02/20 17:50 EGJB 241750Z 25020KT 1400 1000S -RA BR VCFG SCT000 BKN001 10/10 Q1011 RERA VCFG -RA BR WSW (250°) 23.0mph 10°C 10°C
24/02/20 17:20 EGJB 241720Z 24019KT 0350 R27/1000 RA FG BKN000 10/10 Q1012 RA FG WSW (240°) 21.9mph 10°C 10°C
24/02/20 16:50 EGJB 241650Z 24023KT 3200 RA FEW001 SCT002 BKN003 10/10 Q1012 RA WSW (240°) 26.5mph 10°C 10°C
24/02/20 16:20 EGJB 241620Z 24021KT 3800 RA SCT001 BKN002 10/10 Q1012 RA WSW (240°) 24.2mph 10°C 10°C
24/02/20 15:50 EGJB 241550Z 24023KT 5000 -RA FEW001 SCT002 BKN003 10/10 Q1012 RERA -RA WSW (240°) 26.5mph 10°C 10°C
24/02/20 15:20 EGJB 241520Z 24023KT 2400 RA BR FEW001 BKN002 10/10 Q1012 RA BR WSW (240°) 26.5mph 10°C 10°C
24/02/20 14:50 EGJB 241450Z 24022KT 1600 RADZ BR VCFG FEW000 BKN001 10/10 Q1013 RA DZ BR VCFG WSW (240°) 25.3mph 10°C 10°C
24/02/20 14:20 EGJB 241420Z 23023KT 2500 -DZ BR VCFG FEW000 SCT001 BKN002 10/10 Q1013 -DZ BR VCFG SW (230°) 26.5mph 10°C 10°C
24/02/20 13:50 EGJB 241350Z 24023KT 3200 -DZ BR VCFG FEW000 SCT001 BKN002 10/09 Q1013 -DZ BR VCFG WSW (240°) 26.5mph 10°C 9°C
24/02/20 13:20 EGJB 241320Z 23022KT 3000 -DZ BR BKN003 10/09 Q1014 -DZ BR SW (230°) 25.3mph 10°C 9°C
24/02/20 12:50 EGJB 241250Z 23025KT 5000 -DZ FEW005 BKN006 10/09 Q1014 -DZ SW (230°) 28.8mph 10°C 9°C